createdAt,value
2023-04-23T04:54:44.759Z,8.48
2023-04-23T04:57:48.001Z,8.65
2023-04-23T05:00:54.556Z,8.02
2023-04-23T05:03:58.288Z,9.13
2023-04-23T05:07:01.503Z,9.05
2023-04-23T05:10:08.793Z,8.35
2023-04-23T05:13:11.869Z,9.10
2023-04-23T05:16:14.882Z,8.93
2023-04-23T05:19:17.756Z,8.48
2023-04-23T05:22:20.726Z,9.13
2023-04-23T05:25:24.950Z,8.20
2023-04-23T05:28:27.838Z,9.10
2023-04-23T05:31:35.248Z,8.50
2023-04-23T05:34:38.114Z,8.77
2023-04-23T05:37:41.199Z,9.00
2023-04-23T05:40:47.769Z,8.45
2023-04-23T05:43:50.780Z,7.28
2023-04-23T05:46:54.145Z,8.15
2023-04-23T05:49:57.768Z,8.48
2023-04-23T05:53:01.469Z,8.45
2023-04-23T05:56:06.010Z,7.72
2023-04-23T05:59:08.764Z,9.23
2023-04-23T06:02:12.304Z,8.65
2023-04-23T06:05:15.208Z,10.02
2023-04-23T06:08:18.392Z,9.55
2023-04-23T06:11:22.343Z,8.88
2023-04-23T06:14:24.815Z,9.05
2023-04-23T06:17:27.298Z,9.07
2023-04-23T06:20:30.541Z,9.25
2023-04-23T06:23:33.602Z,9.75
2023-04-23T06:26:37.435Z,8.88
2023-04-23T06:29:39.869Z,8.85
2023-04-23T06:32:42.685Z,9.18
2023-04-23T06:35:46.784Z,8.48
2023-04-23T06:38:49.850Z,8.40
2023-04-23T06:41:53.912Z,8.18
2023-04-23T06:44:56.598Z,8.88
2023-04-23T06:47:59.110Z,8.43
2023-04-23T06:51:01.584Z,7.93
2023-04-23T06:54:04.113Z,7.82
2023-04-23T06:57:08.060Z,8.07
2023-04-23T07:00:12.150Z,7.10
2023-04-23T07:03:14.795Z,7.53
2023-04-23T07:06:17.409Z,7.80
2023-04-23T07:09:19.914Z,7.95
2023-04-23T07:12:23.814Z,7.85
2023-04-23T07:15:26.344Z,8.43
2023-04-23T07:18:28.872Z,8.02
2023-04-23T07:21:32.950Z,7.55
2023-04-23T07:24:35.463Z,7.22
2023-04-23T07:27:39.313Z,8.30
2023-04-23T07:30:41.908Z,7.10
2023-04-23T07:33:44.442Z,7.43
2023-04-23T07:36:46.918Z,7.57
2023-04-23T07:39:49.613Z,7.63
2023-04-23T07:42:53.431Z,7.68
2023-04-23T07:45:55.923Z,7.93
2023-04-23T07:48:58.536Z,7.47
2023-04-23T07:52:01.005Z,7.32
2023-04-23T07:55:03.535Z,7.85
2023-04-23T07:58:07.554Z,7.40
2023-04-23T08:01:10.254Z,8.73
2023-04-23T08:04:14.114Z,7.82
2023-04-23T08:07:16.805Z,9.20
2023-04-23T08:10:19.319Z,7.65
2023-04-23T08:13:23.245Z,8.65
2023-04-23T08:16:26.529Z,8.52
2023-04-23T08:19:32.228Z,9.00
2023-04-23T08:22:34.726Z,9.13
2023-04-23T08:25:37.211Z,9.82
2023-04-23T08:28:40.997Z,9.50
2023-04-23T08:31:43.500Z,9.05
2023-04-23T08:34:45.978Z,10.13
2023-04-23T08:37:48.601Z,10.23
2023-04-23T08:40:57.286Z,10.73
2023-04-23T08:44:07.535Z,9.93
2023-04-23T08:47:13.472Z,9.80
2023-04-23T08:50:17.805Z,9.93
2023-04-23T08:53:21.643Z,9.40
2023-04-23T08:56:25.507Z,9.82
2023-04-23T08:59:32.704Z,9.65
2023-04-23T09:02:36.258Z,10.10
2023-04-23T09:05:39.111Z,9.68
2023-04-23T09:08:41.874Z,8.80
2023-04-23T09:11:44.984Z,8.55
2023-04-23T09:14:51.034Z,7.90
2023-04-23T09:17:53.499Z,7.72
2023-04-23T09:20:56.104Z,7.25
2023-04-23T09:23:58.586Z,7.80
2023-04-23T09:27:01.119Z,7.72
2023-04-23T09:30:07.451Z,7.07
2023-04-23T09:33:12.596Z,5.63
2023-04-23T09:36:16.540Z,4.78
2023-04-23T09:39:20.434Z,4.25
2023-04-23T09:42:24.617Z,3.95
2023-04-23T09:45:29.888Z,3.97
2023-04-23T09:48:41.733Z,3.60
2023-04-23T09:51:46.502Z,3.65
2023-04-23T09:54:49.059Z,2.83
2023-04-23T09:57:51.592Z,3.10
2023-04-23T10:01:07.617Z,2.40
2023-04-23T10:04:13.334Z,2.88
2023-04-23T10:07:20.456Z,2.85
2023-04-23T10:10:23.167Z,2.67
2023-04-23T10:13:27.566Z,2.60
2023-04-23T10:16:38.816Z,2.80
2023-04-23T10:19:51.494Z,2.50
2023-04-23T10:22:56.380Z,2.50
2023-04-23T10:26:02.369Z,2.53
2023-04-23T10:29:08.712Z,1.80
2023-04-23T10:32:13.642Z,2.20
2023-04-23T10:35:16.147Z,2.13
2023-04-23T10:38:19.087Z,2.30
2023-04-23T10:41:27.945Z,1.95
2023-04-23T10:44:56.567Z,2.25
2023-04-23T10:47:59.636Z,2.50
2023-04-23T10:51:30.516Z,2.67
2023-04-23T10:54:30.055Z,2.40
2023-04-23T10:57:32.581Z,2.72
2023-04-23T11:00:46.412Z,2.50
2023-04-23T11:03:53.331Z,2.53
2023-04-23T11:06:59.628Z,2.40
2023-04-23T11:10:13.015Z,2.40
2023-04-23T11:13:24.444Z,1.80
2023-04-23T11:16:26.966Z,1.60
2023-04-23T11:19:31.738Z,1.80
2023-04-23T11:22:36.303Z,1.58
2023-04-23T11:25:42.968Z,2.10
2023-04-23T11:28:45.981Z,1.50
2023-04-23T11:32:01.339Z,1.77
2023-04-23T11:35:11.429Z,1.88
2023-04-23T11:38:15.060Z,1.48
2023-04-23T11:41:23.847Z,1.40
2023-04-23T11:44:26.393Z,1.40
2023-04-23T11:47:28.935Z,1.88
2023-04-23T11:50:35.475Z,1.77
2023-04-23T11:53:45.220Z,1.50
2023-04-23T11:56:47.674Z,1.63
2023-04-23T11:59:50.133Z,1.70
2023-04-23T12:02:54.301Z,1.42
2023-04-23T12:06:00.134Z,1.85
2023-04-23T12:09:02.565Z,2.00
2023-04-23T12:12:06.115Z,1.52
2023-04-23T12:15:09.577Z,1.55
2023-04-23T12:18:12.497Z,2.00
2023-04-23T12:21:17.532Z,1.55
2023-04-23T12:24:20.306Z,1.88
2023-04-23T12:27:23.586Z,1.70
2023-04-23T12:30:29.888Z,1.90
2023-04-23T12:33:32.393Z,1.90
2023-04-23T12:36:37.817Z,1.30
2023-04-23T12:39:40.579Z,1.50
2023-04-23T12:42:43.253Z,1.67
2023-04-23T12:45:46.272Z,2.05
2023-04-23T12:48:48.757Z,1.40
2023-04-23T12:51:53.090Z,1.70
2023-04-23T12:54:57.474Z,1.75
2023-04-23T12:58:00.358Z,1.40
2023-04-23T13:01:02.883Z,1.70
2023-04-23T13:04:05.701Z,1.95
2023-04-23T13:07:10.025Z,1.60
2023-04-23T13:10:12.538Z,2.13
2023-04-23T13:13:14.979Z,1.60
2023-04-23T13:16:17.534Z,1.98
2023-04-23T13:19:20.082Z,1.48
2023-04-23T13:22:28.316Z,1.73
2023-04-23T13:25:30.846Z,1.48
2023-04-23T13:28:33.369Z,1.42
2023-04-23T13:31:35.954Z,1.45
2023-04-23T13:34:38.525Z,1.50
2023-04-23T13:37:42.336Z,1.13
2023-04-23T13:40:44.801Z,1.23
2023-04-23T13:43:47.372Z,1.40
2023-04-23T13:46:50.918Z,1.13
2023-04-23T13:49:53.537Z,1.42
2023-04-23T13:52:57.402Z,1.27
2023-04-23T13:56:00.819Z,1.17
2023-04-23T14:02:09.601Z,1.50
2023-04-23T14:05:12.370Z,1.75
2023-04-23T14:08:16.159Z,1.63
2023-04-23T14:11:19.067Z,1.58
2023-04-23T14:14:21.555Z,1.40
2023-04-23T14:17:24.057Z,1.80
2023-04-23T14:20:26.581Z,1.80
2023-04-23T14:23:46.898Z,2.00
2023-04-23T14:26:50.187Z,1.50
2023-04-23T14:29:58.451Z,1.60
2023-04-23T14:33:00.959Z,1.65
2023-04-23T14:36:03.528Z,1.65
2023-04-23T14:39:07.325Z,1.45
2023-04-23T14:42:09.959Z,1.80
2023-04-23T14:45:13.984Z,1.67
2023-04-23T14:48:16.454Z,1.50
2023-04-23T14:51:18.941Z,1.52
2023-04-23T14:54:23.736Z,1.50
2023-04-23T14:57:27.284Z,1.38
2023-04-23T15:00:30.225Z,1.77
2023-04-23T15:03:32.968Z,1.50
2023-04-23T15:06:35.711Z,1.63
2023-04-23T15:09:39.668Z,1.40
2023-04-23T15:12:52.503Z,2.05
2023-04-23T15:16:00.053Z,1.80
2023-04-23T15:19:06.230Z,1.55
2023-04-23T15:22:08.695Z,1.60
2023-04-23T15:25:12.490Z,1.40
2023-04-23T15:28:14.967Z,1.92
2023-04-23T15:31:17.450Z,1.55
2023-04-23T15:34:19.979Z,1.55
2023-04-23T15:37:24.080Z,1.55
2023-04-23T15:40:29.362Z,1.60
2023-04-23T15:43:31.841Z,1.50
2023-04-23T15:46:34.303Z,1.38
2023-04-23T15:49:36.791Z,0.95
2023-04-23T15:52:41.333Z,1.20
2023-04-23T15:55:45.137Z,0.82
2023-04-23T15:58:47.634Z,1.00
2023-04-23T16:01:50.571Z,1.40
2023-04-23T16:04:53.178Z,0.93
2023-04-23T16:07:55.636Z,1.48
2023-04-23T16:10:59.509Z,1.08
2023-04-23T16:14:02.032Z,1.60
2023-04-23T16:17:04.539Z,1.15
2023-04-23T16:20:08.645Z,1.08
2023-04-23T16:23:11.686Z,1.23
2023-04-23T16:26:15.550Z,1.08
2023-04-23T16:29:22.491Z,1.05
2023-04-23T16:32:25.759Z,1.60
2023-04-23T16:35:28.378Z,3.22
2023-04-23T16:38:30.880Z,1.77
2023-04-23T16:41:34.930Z,2.65
2023-04-23T16:44:37.416Z,1.38
2023-04-23T16:47:39.912Z,1.08
2023-04-23T16:50:43.083Z,1.27
2023-04-23T16:53:45.822Z,1.65
2023-04-23T16:56:49.672Z,1.23
2023-04-23T16:59:52.848Z,1.10
2023-04-23T17:02:56.989Z,1.13
2023-04-23T17:06:09.065Z,1.17
2023-04-23T17:09:11.699Z,1.15
2023-04-23T17:12:15.478Z,1.30
2023-04-23T17:15:18.212Z,1.33
2023-04-23T17:18:20.704Z,1.45
2023-04-23T17:21:23.807Z,1.33
2023-04-23T17:24:26.426Z,1.55
2023-04-23T17:27:30.224Z,1.30
2023-04-23T17:30:32.755Z,1.60
2023-04-23T17:33:35.496Z,1.13
2023-04-23T17:36:37.968Z,1.20
2023-04-23T17:39:40.450Z,1.40
2023-04-23T17:42:44.272Z,1.88
2023-04-23T17:45:47.653Z,1.65
2023-04-23T17:48:50.362Z,1.55
2023-04-23T17:51:52.856Z,1.88
2023-04-23T17:54:56.726Z,2.00
2023-04-23T17:58:05.113Z,1.77
2023-04-23T18:01:08.512Z,2.20
2023-04-23T18:04:11.419Z,2.15
2023-04-23T18:07:14.018Z,2.30
2023-04-23T18:10:16.557Z,1.85
2023-04-23T18:13:20.481Z,1.98
2023-04-23T18:16:23.048Z,1.60
2023-04-23T18:19:25.606Z,1.70
2023-04-23T18:22:28.197Z,1.70
2023-04-23T18:25:30.774Z,1.80
2023-04-23T18:28:37.043Z,1.92
2023-04-23T18:31:39.577Z,1.92
2023-04-23T18:34:42.392Z,2.33
2023-04-23T18:37:53.809Z,2.10
2023-04-23T18:40:59.015Z,2.00
2023-04-23T18:44:02.821Z,2.70
2023-04-23T18:47:05.337Z,1.83
2023-04-23T18:50:11.721Z,2.20
2023-04-23T18:53:14.181Z,2.70
2023-04-23T18:56:16.705Z,2.40
2023-04-23T18:59:20.581Z,2.83
2023-04-23T19:02:34.348Z,2.55
2023-04-23T19:05:37.967Z,2.88
2023-04-23T19:08:42.314Z,2.55
2023-04-23T19:11:45.181Z,2.80
2023-04-23T19:14:48.990Z,2.20
2023-04-23T19:17:51.553Z,2.72
2023-04-23T19:20:54.249Z,2.42
2023-04-23T19:23:56.739Z,3.03
2023-04-23T19:26:59.205Z,3.10
2023-04-23T19:30:03.033Z,3.03
2023-04-23T19:33:05.580Z,3.33
2023-04-23T19:36:08.978Z,2.95
2023-04-23T19:39:11.504Z,3.13
2023-04-23T19:42:14.017Z,3.42
2023-04-23T19:45:18.435Z,3.25
2023-04-23T19:48:20.935Z,3.60
2023-04-23T19:51:27.764Z,3.10
2023-04-23T19:54:30.520Z,3.47
2023-04-23T19:57:33.077Z,2.90
2023-04-23T20:00:41.449Z,3.35
2023-04-23T20:03:47.631Z,3.30
2023-04-23T20:06:50.150Z,3.13
2023-04-23T20:09:52.620Z,3.40
2023-04-23T20:12:55.085Z,2.83
2023-04-23T20:15:59.204Z,3.72
2023-04-23T20:19:01.840Z,2.55
2023-04-23T20:22:04.374Z,3.30
2023-04-23T20:25:08.117Z,3.15
2023-04-23T20:28:11.838Z,2.50
2023-04-23T20:31:15.783Z,2.88
2023-04-23T20:34:18.288Z,4.22
2023-04-23T20:37:21.767Z,3.63
2023-04-23T20:40:25.150Z,3.78
2023-04-23T20:43:27.687Z,3.22
2023-04-23T20:46:33.181Z,3.55
2023-04-23T20:49:35.870Z,3.35
2023-04-23T20:52:38.460Z,3.53
2023-04-23T20:55:40.933Z,3.40
2023-04-23T20:58:43.694Z,3.97
